createdAt,value
2023-04-18T00:01:54.319Z,15.35
2023-04-18T00:04:22.074Z,11.93
2023-04-18T00:06:50.071Z,11.73
2023-04-18T00:09:17.169Z,12.18
2023-04-18T00:11:44.569Z,10.93
2023-04-18T00:14:12.157Z,9.32
2023-04-18T00:16:39.647Z,9.82
2023-04-18T00:19:07.021Z,13.55
2023-04-18T00:21:34.017Z,15.82
2023-04-18T00:24:01.150Z,7.63
2023-04-18T00:26:28.444Z,10.95
2023-04-18T00:28:55.445Z,14.30
2023-04-18T00:31:22.540Z,8.95
2023-04-18T00:33:49.704Z,12.32
2023-04-18T00:36:16.710Z,10.38
2023-04-18T00:38:43.633Z,11.77
2023-04-18T00:41:10.741Z,10.73
2023-04-18T00:43:37.812Z,11.27
2023-04-18T00:46:04.959Z,9.93
2023-04-18T00:48:32.119Z,13.95
2023-04-18T00:51:00.583Z,9.18
2023-04-18T00:53:28.173Z,13.07
2023-04-18T00:55:55.541Z,9.00
2023-04-18T00:58:23.759Z,11.20
2023-04-18T01:00:51.183Z,12.90
2023-04-18T01:03:18.599Z,10.25
2023-04-18T01:05:46.710Z,11.75
2023-04-18T01:08:14.436Z,13.40
2023-04-18T01:10:42.092Z,7.97
2023-04-18T01:13:13.020Z,7.75
2023-04-18T01:15:41.801Z,10.68
2023-04-18T01:18:10.095Z,8.80
2023-04-18T01:20:41.611Z,10.32
2023-04-18T01:23:10.650Z,13.88
2023-04-18T01:25:37.897Z,8.50
2023-04-18T01:28:06.533Z,7.80
2023-04-18T01:30:34.533Z,13.57
2023-04-18T01:33:03.964Z,9.27
2023-04-18T01:35:32.128Z,10.60
2023-04-18T01:37:59.632Z,15.30
2023-04-18T01:40:26.760Z,7.95
2023-04-18T01:42:53.914Z,8.27
2023-04-18T01:45:21.294Z,11.98
2023-04-18T01:47:48.467Z,8.88
2023-04-18T01:50:15.584Z,10.10
2023-04-18T01:52:42.668Z,11.32
2023-04-18T01:55:10.224Z,11.15
2023-04-18T01:57:37.350Z,9.07
2023-04-18T02:00:06.414Z,11.90
2023-04-18T02:02:33.798Z,9.15
2023-04-18T02:05:00.951Z,9.57
2023-04-18T02:07:27.995Z,8.30
2023-04-18T02:09:55.320Z,8.82
2023-04-18T02:12:22.681Z,11.27
2023-04-18T02:14:53.653Z,13.02
2023-04-18T02:17:23.670Z,11.30
2023-04-18T02:19:51.724Z,10.30
2023-04-18T02:22:19.047Z,10.63
2023-04-18T02:24:46.213Z,10.60
2023-04-18T02:27:13.425Z,8.88
2023-04-18T02:29:40.556Z,11.15
2023-04-18T02:32:07.864Z,11.35
2023-04-18T02:34:36.532Z,10.60
2023-04-18T02:37:04.271Z,10.88
2023-04-18T02:39:31.715Z,11.75
2023-04-18T02:41:59.263Z,12.50
2023-04-18T02:44:26.306Z,8.82
2023-04-18T02:46:53.489Z,10.43
2023-04-18T02:49:20.502Z,8.68
2023-04-18T02:51:47.585Z,10.75
2023-04-18T02:54:15.011Z,13.23
2023-04-18T02:56:43.063Z,9.73
2023-04-18T02:59:10.127Z,16.08
2023-04-18T03:01:37.374Z,13.00
2023-04-18T03:04:04.635Z,14.20
2023-04-18T03:06:32.053Z,11.57
2023-04-18T03:08:59.356Z,11.77
2023-04-18T03:11:26.559Z,15.07
2023-04-18T03:13:54.226Z,10.65
2023-04-18T03:16:21.491Z,8.90
2023-04-18T03:18:48.599Z,9.85
2023-04-18T03:21:15.775Z,10.80
2023-04-18T03:23:43.106Z,13.15
2023-04-18T03:26:10.227Z,9.93
2023-04-18T03:28:37.329Z,15.20
2023-04-18T03:31:04.733Z,16.17
2023-04-18T03:33:31.831Z,16.92
2023-04-18T03:35:59.486Z,12.60
2023-04-18T03:38:26.623Z,12.50
2023-04-18T03:40:54.111Z,9.60
2023-04-18T03:43:21.309Z,13.48
2023-04-18T03:45:48.766Z,14.80
2023-04-18T03:48:15.915Z,12.25
2023-04-18T03:50:43.017Z,10.50
2023-04-18T03:53:10.177Z,17.77
2023-04-18T03:55:37.224Z,11.25
2023-04-18T03:58:04.290Z,12.30
2023-04-18T04:00:31.534Z,19.73
2023-04-18T04:02:58.801Z,14.73
2023-04-18T04:05:26.092Z,18.27
2023-04-18T04:07:53.471Z,12.77
2023-04-18T04:10:20.794Z,11.35
2023-04-18T04:12:48.091Z,20.20
2023-04-18T04:15:15.449Z,17.73
2023-04-18T04:17:42.521Z,15.55
2023-04-18T04:20:10.170Z,16.95
2023-04-18T04:22:37.647Z,19.63
2023-04-18T04:25:05.542Z,16.13
2023-04-18T04:27:34.260Z,19.88
2023-04-18T04:30:02.798Z,13.05
2023-04-18T04:32:31.140Z,13.68
2023-04-18T04:34:58.271Z,13.43
2023-04-18T04:37:25.349Z,19.08
2023-04-18T04:39:52.608Z,13.80
2023-04-18T04:42:20.012Z,14.15
2023-04-18T04:44:47.483Z,13.15
2023-04-18T04:47:14.430Z,15.63
2023-04-18T04:49:41.470Z,10.63
2023-04-18T04:52:09.284Z,14.50
2023-04-18T04:54:37.387Z,14.52
2023-04-18T04:57:04.684Z,14.65
2023-04-18T04:59:31.861Z,14.35
2023-04-18T05:01:58.931Z,16.17
2023-04-18T05:04:29.999Z,17.40
2023-04-18T05:07:00.416Z,11.25
2023-04-18T05:09:27.540Z,18.10
2023-04-18T05:11:54.572Z,11.05
2023-04-18T05:14:21.799Z,14.15
2023-04-18T05:16:48.876Z,23.88
2023-04-18T05:19:15.996Z,13.35
2023-04-18T05:21:43.085Z,7.20
2023-04-18T05:24:10.448Z,13.55
2023-04-18T05:26:37.733Z,12.48
2023-04-18T05:29:04.872Z,15.85
2023-04-18T05:31:32.246Z,17.25
2023-04-18T05:33:59.345Z,12.98
2023-04-18T05:36:26.934Z,14.00
2023-04-18T05:38:53.975Z,13.07
2023-04-18T05:41:21.206Z,21.88
2023-04-18T05:44:01.913Z,9.23
2023-04-18T05:46:32.012Z,15.05
2023-04-18T05:48:59.126Z,17.73
2023-04-18T05:51:27.065Z,9.95
2023-04-18T05:53:54.423Z,12.73
2023-04-18T05:56:21.530Z,17.05
2023-04-18T05:58:51.470Z,20.02
2023-04-18T06:01:21.743Z,27.38
2023-04-18T06:06:16.355Z,20.30
2023-04-18T06:08:43.718Z,16.33
2023-04-18T06:11:11.023Z,26.05
2023-04-18T06:13:38.101Z,21.42
2023-04-18T06:16:05.677Z,20.65
2023-04-18T06:18:32.844Z,32.00
2023-04-18T06:21:00.172Z,26.33
2023-04-18T06:23:27.230Z,23.75
2023-04-18T06:25:54.253Z,19.88
2023-04-18T06:28:21.246Z,18.98
2023-04-18T06:30:48.357Z,19.67
2023-04-18T06:33:15.659Z,14.50
2023-04-18T06:35:43.021Z,16.65
2023-04-18T06:38:11.873Z,17.50
2023-04-18T06:40:38.945Z,17.33
2023-04-18T06:43:06.183Z,16.25
2023-04-18T06:45:33.522Z,14.65
2023-04-18T06:48:03.701Z,14.30
2023-04-18T06:50:31.314Z,16.95
2023-04-18T06:52:58.400Z,17.05
2023-04-18T06:55:25.430Z,15.77
2023-04-18T06:57:53.075Z,18.08
2023-04-18T07:00:20.503Z,15.20
2023-04-18T07:02:47.992Z,13.40
2023-04-18T07:05:15.153Z,14.45
2023-04-18T07:07:42.226Z,15.05
2023-04-18T07:10:10.715Z,11.95
2023-04-18T07:12:37.773Z,12.40
2023-04-18T07:15:05.241Z,12.82
2023-04-18T07:17:32.735Z,18.02
2023-04-18T07:19:59.908Z,13.55
2023-04-18T07:22:27.001Z,14.52
2023-04-18T07:24:54.006Z,18.45
2023-04-18T07:27:21.202Z,13.32
2023-04-18T07:29:48.214Z,10.95
2023-04-18T07:32:15.282Z,13.20
2023-04-18T07:34:43.918Z,20.50
2023-04-18T07:37:13.480Z,13.73
2023-04-18T07:39:41.935Z,9.20
2023-04-18T07:42:10.064Z,23.77
2023-04-18T07:44:37.191Z,15.63
2023-04-18T07:47:04.559Z,12.15
2023-04-18T07:49:31.606Z,17.67
2023-04-18T07:51:58.725Z,14.10
2023-04-18T07:54:25.990Z,13.90
2023-04-18T07:56:53.203Z,10.85
2023-04-18T07:59:20.610Z,12.00
2023-04-18T08:01:47.624Z,14.35
2023-04-18T08:04:15.322Z,17.85
2023-04-18T08:06:42.602Z,14.30
2023-04-18T08:09:09.763Z,18.70
2023-04-18T08:11:36.898Z,14.13
2023-04-18T08:14:04.075Z,16.33
2023-04-18T08:16:31.119Z,12.57
2023-04-18T08:18:58.097Z,10.73
2023-04-18T08:21:26.560Z,11.32
2023-04-18T08:23:53.678Z,21.25
2023-04-18T08:26:21.850Z,13.52
2023-04-18T08:28:49.020Z,18.13
2023-04-18T08:31:16.559Z,9.55
2023-04-18T08:33:43.860Z,16.25
2023-04-18T08:36:12.203Z,9.40
2023-04-18T08:38:39.432Z,10.60
2023-04-18T08:41:06.409Z,13.77
2023-04-18T08:43:33.498Z,10.85
2023-04-18T08:46:01.930Z,18.15
2023-04-18T08:48:29.376Z,10.18
2023-04-18T08:51:00.033Z,11.57
2023-04-18T08:53:27.431Z,10.48
2023-04-18T08:55:58.137Z,11.40
2023-04-18T08:58:28.036Z,13.05
2023-04-18T09:00:55.551Z,13.85
2023-04-18T09:03:42.614Z,18.33
2023-04-18T09:06:12.703Z,28.63
2023-04-18T09:08:44.176Z,12.68
2023-04-18T09:11:42.570Z,11.20
2023-04-18T09:14:24.674Z,14.30
2023-04-18T09:16:51.727Z,13.63
2023-04-18T09:19:19.101Z,8.95
2023-04-18T09:21:47.481Z,13.82
2023-04-18T09:24:24.495Z,11.35
2023-04-18T09:26:54.094Z,10.00
2023-04-18T09:31:54.933Z,13.43
2023-04-18T09:34:26.560Z,10.95
2023-04-18T09:37:08.578Z,10.32
2023-04-18T09:39:40.197Z,17.80
2023-04-18T09:42:08.789Z,12.40
2023-04-18T09:44:35.944Z,9.63
2023-04-18T09:47:03.156Z,13.30
2023-04-18T09:49:30.477Z,22.92
2023-04-18T09:51:58.063Z,11.43
2023-04-18T09:54:25.685Z,11.25
2023-04-18T09:56:54.452Z,16.67
2023-04-18T09:59:34.615Z,9.35
2023-04-18T10:02:03.800Z,16.80
2023-04-18T10:04:32.855Z,12.75
2023-04-18T10:07:00.986Z,12.55
2023-04-18T10:09:33.473Z,12.38
2023-04-18T10:12:02.952Z,11.25
2023-04-18T10:14:33.165Z,15.40
2023-04-18T10:17:01.307Z,10.70
2023-04-18T10:19:30.230Z,16.98
2023-04-18T10:22:02.040Z,24.73
2023-04-18T10:25:08.018Z,12.82
2023-04-18T10:27:57.839Z,13.85
2023-04-18T10:30:42.945Z,17.30
2023-04-18T10:33:40.954Z,20.00
2023-04-18T10:36:09.642Z,22.88
2023-04-18T10:38:45.554Z,16.08
2023-04-18T10:41:19.377Z,31.98
2023-04-18T10:44:08.862Z,27.60
2023-04-18T10:46:42.518Z,35.25
2023-04-18T10:49:32.030Z,14.85
2023-04-18T10:52:01.831Z,12.93
2023-04-18T10:54:51.795Z,22.52
2023-04-18T10:57:18.877Z,9.18
2023-04-18T10:59:51.167Z,15.70
2023-04-18T11:02:30.648Z,51.42
2023-04-18T11:05:04.864Z,10.52
2023-04-18T11:07:40.609Z,27.67
2023-04-18T11:10:09.489Z,10.90
2023-04-18T11:12:38.788Z,13.65
2023-04-18T11:15:15.394Z,14.20
2023-04-18T11:20:15.055Z,9.30
2023-04-18T11:22:57.180Z,9.95
2023-04-18T11:25:27.136Z,12.65
2023-04-18T11:27:57.134Z,11.55
2023-04-18T11:30:24.663Z,10.20
2023-04-18T11:32:52.480Z,11.35
2023-04-18T11:35:19.724Z,9.88
2023-04-18T11:37:46.869Z,12.65
2023-04-18T11:40:14.700Z,11.80
2023-04-18T11:42:42.624Z,16.48
2023-04-18T11:45:12.150Z,15.70
2023-04-18T11:47:40.248Z,15.48
2023-04-18T11:50:09.160Z,18.52
2023-04-18T11:52:37.291Z,17.30
2023-04-18T11:55:15.161Z,17.17
2023-04-18T11:57:42.253Z,14.27
2023-04-18T12:00:12.435Z,13.10
2023-04-18T12:02:45.282Z,13.20
2023-04-18T12:05:15.044Z,14.00
2023-04-18T12:07:45.189Z,26.25
2023-04-18T12:10:21.116Z,15.35
2023-04-18T12:12:53.470Z,18.20
2023-04-18T12:15:23.615Z,17.05
2023-04-18T12:17:54.010Z,13.75
2023-04-18T12:20:25.169Z,14.70
2023-04-18T12:22:53.268Z,10.75
2023-04-18T12:25:25.913Z,13.88
2023-04-18T12:28:15.085Z,15.57
2023-04-18T12:30:42.803Z,13.15
2023-04-18T12:33:10.010Z,13.57
2023-04-18T12:35:37.149Z,14.48
2023-04-18T12:38:05.941Z,15.50
2023-04-18T12:40:33.173Z,16.33
2023-04-18T12:43:02.898Z,16.42
2023-04-18T12:47:57.552Z,14.55
2023-04-18T12:50:26.623Z,11.10
2023-04-18T12:52:55.349Z,14.13
2023-04-18T12:55:23.042Z,13.85
2023-04-18T12:57:54.541Z,14.98
2023-04-18T13:00:23.745Z,14.05
2023-04-18T13:02:52.695Z,17.48
2023-04-18T13:05:22.804Z,11.40
2023-04-18T13:07:56.379Z,14.43
2023-04-18T13:10:29.067Z,20.88
2023-04-18T13:12:56.074Z,12.77
2023-04-18T13:15:24.079Z,14.85
2023-04-18T13:17:51.326Z,17.67
2023-04-18T13:20:18.848Z,19.13
2023-04-18T13:22:46.266Z,16.55
2023-04-18T13:25:13.569Z,12.23
2023-04-18T13:27:42.177Z,13.02
2023-04-18T13:30:11.453Z,12.55
2023-04-18T13:32:41.469Z,18.27
2023-04-18T13:35:11.237Z,14.27
2023-04-18T13:37:38.910Z,11.02
2023-04-18T13:40:07.204Z,15.27
2023-04-18T13:42:35.981Z,18.80
2023-04-18T13:45:03.464Z,11.48
2023-04-18T13:47:33.799Z,11.88
2023-04-18T13:50:00.883Z,8.32
2023-04-18T13:52:28.234Z,11.13
2023-04-18T13:54:55.344Z,13.70
2023-04-18T13:57:23.425Z,14.05
2023-04-18T13:59:52.872Z,9.40
2023-04-18T14:02:20.070Z,22.70
2023-04-18T14:04:47.542Z,9.50
2023-04-18T14:07:15.007Z,13.10
2023-04-18T14:09:42.322Z,10.80
2023-04-18T14:12:09.508Z,12.27
2023-04-18T14:14:37.310Z,10.05
2023-04-18T14:17:04.448Z,11.35
2023-04-18T14:19:31.558Z,13.20
2023-04-18T14:21:58.859Z,13.98
2023-04-18T14:24:26.458Z,9.90
2023-04-18T14:26:53.544Z,23.95
2023-04-18T14:29:20.705Z,11.35
2023-04-18T14:31:47.910Z,9.90
2023-04-18T14:34:15.085Z,17.90
2023-04-18T14:36:42.292Z,10.23
2023-04-18T14:39:09.356Z,13.95
2023-04-18T14:41:36.492Z,8.15
2023-04-18T14:44:04.340Z,12.15
2023-04-18T14:46:31.652Z,16.17
2023-04-18T14:48:58.744Z,11.85
2023-04-18T14:51:26.403Z,19.67
2023-04-18T14:53:53.508Z,12.50
2023-04-18T14:56:24.397Z,10.65
2023-04-18T14:58:51.520Z,11.07
2023-04-18T15:01:18.861Z,12.93
2023-04-18T15:03:46.292Z,11.80
2023-04-18T15:06:13.477Z,11.63
2023-04-18T15:08:40.977Z,16.35
2023-04-18T15:11:08.698Z,17.77
2023-04-18T15:13:36.131Z,13.77
2023-04-18T15:16:03.619Z,18.73
2023-04-18T15:18:30.865Z,14.35
2023-04-18T15:20:59.725Z,13.57
2023-04-18T15:23:27.971Z,15.05
2023-04-18T15:25:55.210Z,12.93
2023-04-18T15:28:22.287Z,10.27
2023-04-18T15:30:49.548Z,15.13
2023-04-18T15:33:18.107Z,10.52
2023-04-18T15:35:45.976Z,18.70
2023-04-18T15:38:13.484Z,10.95
2023-04-18T15:40:40.988Z,11.23
2023-04-18T15:43:08.398Z,17.15
2023-04-18T15:45:36.286Z,20.77
2023-04-18T15:48:03.437Z,13.73
2023-04-18T15:50:33.641Z,11.95
2023-04-18T15:53:00.927Z,10.95
2023-04-18T15:55:28.090Z,9.88
2023-04-18T15:57:55.668Z,10.75
2023-04-18T16:00:23.536Z,19.50
2023-04-18T16:02:50.875Z,14.77
2023-04-18T16:05:19.112Z,15.52
2023-04-18T16:07:46.415Z,20.17
2023-04-18T16:10:15.368Z,13.80
2023-04-18T16:12:42.735Z,14.15
2023-04-18T16:15:10.232Z,23.13
2023-04-18T16:17:37.883Z,17.77
2023-04-18T16:20:09.346Z,18.17
2023-04-18T16:22:37.869Z,17.95
2023-04-18T16:25:05.660Z,20.00
2023-04-18T16:27:33.434Z,18.58
2023-04-18T16:30:01.055Z,11.85
2023-04-18T16:32:28.541Z,11.75
2023-04-18T16:34:55.890Z,10.98
2023-04-18T16:37:23.251Z,11.68
2023-04-18T16:39:50.582Z,9.90
2023-04-18T16:42:17.542Z,13.70
2023-04-18T16:44:48.372Z,14.43
2023-04-18T16:47:15.511Z,11.75
2023-04-18T16:49:44.235Z,14.30
2023-04-18T16:52:11.257Z,15.48
2023-04-18T16:54:38.473Z,10.85
2023-04-18T16:57:05.733Z,19.52
2023-04-18T16:59:32.837Z,14.93
2023-04-18T17:01:59.930Z,20.80
2023-04-18T17:04:27.483Z,38.28
2023-04-18T17:06:57.245Z,22.20
2023-04-18T17:09:24.498Z,19.25
2023-04-18T17:11:51.536Z,30.52
2023-04-18T17:14:18.721Z,27.67
2023-04-18T17:16:46.028Z,16.38
2023-04-18T17:19:13.374Z,30.42
2023-04-18T17:21:40.942Z,28.95
2023-04-18T17:24:08.267Z,33.03
2023-04-18T17:26:37.304Z,17.50
2023-04-18T17:29:04.866Z,27.23
2023-04-18T17:31:32.238Z,25.70
2023-04-18T17:34:00.053Z,36.10
2023-04-18T17:36:27.446Z,41.95
2023-04-18T17:38:54.551Z,34.92
2023-04-18T17:41:22.138Z,36.75
2023-04-18T17:43:52.312Z,35.05
2023-04-18T17:46:19.559Z,32.67
2023-04-18T17:48:47.350Z,36.47
2023-04-18T17:51:16.633Z,38.50
2023-04-18T17:53:43.858Z,50.60
2023-04-18T17:56:11.228Z,47.00
2023-04-18T17:58:38.360Z,35.10
2023-04-18T18:01:17.241Z,26.02
2023-04-18T18:03:45.125Z,28.20
2023-04-18T18:06:13.509Z,29.13
2023-04-18T18:08:42.682Z,29.23
2023-04-18T18:11:10.878Z,37.42
2023-04-18T18:13:41.149Z,29.30
2023-04-18T18:16:09.025Z,21.08
2023-04-18T18:18:37.065Z,29.40
2023-04-18T18:21:04.290Z,21.63
2023-04-18T18:23:31.486Z,26.58
2023-04-18T18:25:58.768Z,20.42
2023-04-18T18:28:25.863Z,28.40
2023-04-18T18:30:53.789Z,16.67
2023-04-18T18:33:21.311Z,23.63
2023-04-18T18:35:48.434Z,29.05
2023-04-18T18:38:15.402Z,29.20
2023-04-18T18:40:42.476Z,27.65
2023-04-18T18:43:12.466Z,18.75
2023-04-18T18:45:39.702Z,32.75
2023-04-18T18:48:10.512Z,32.15
2023-04-18T18:53:06.274Z,26.98
2023-04-18T18:55:33.363Z,31.25
2023-04-18T18:58:00.378Z,22.92
2023-04-18T19:00:27.582Z,28.70
2023-04-18T19:02:54.830Z,19.73
2023-04-18T19:05:22.317Z,29.52
2023-04-18T19:07:51.571Z,20.73
2023-04-18T19:10:18.874Z,27.00
2023-04-18T19:12:45.892Z,26.80
2023-04-18T19:15:13.260Z,33.45
2023-04-18T19:17:46.652Z,28.95
2023-04-18T19:20:17.098Z,30.15
2023-04-18T19:22:48.701Z,32.65
2023-04-18T19:27:43.498Z,33.92
2023-04-18T19:30:11.600Z,25.48
2023-04-18T19:32:41.166Z,42.42
2023-04-18T19:35:13.876Z,35.60
2023-04-18T19:37:42.929Z,39.85
2023-04-18T19:40:10.934Z,34.90
2023-04-18T19:42:38.045Z,45.72
2023-04-18T19:45:05.890Z,50.85
2023-04-18T19:47:34.131Z,44.72
2023-04-18T19:50:01.753Z,47.78
2023-04-18T19:52:30.982Z,49.75
2023-04-18T19:54:58.164Z,48.75
2023-04-18T19:57:26.517Z,48.17
2023-04-18T19:59:53.504Z,52.58
2023-04-18T20:02:20.841Z,49.83
2023-04-18T20:04:48.266Z,48.00
2023-04-18T20:07:15.331Z,52.33
2023-04-18T20:09:42.408Z,64.85
2023-04-18T20:12:09.509Z,42.97
2023-04-18T20:14:36.634Z,47.92
2023-04-18T20:17:03.734Z,58.28
2023-04-18T20:19:30.953Z,47.70
2023-04-18T20:21:58.033Z,46.33
2023-04-18T20:24:28.176Z,49.40
2023-04-18T20:26:55.497Z,52.55
2023-04-18T20:29:22.570Z,44.97
2023-04-18T20:31:49.512Z,54.85
2023-04-18T20:34:16.661Z,48.88
2023-04-18T20:36:45.162Z,52.30
2023-04-18T20:39:13.303Z,43.13
2023-04-18T20:41:49.493Z,55.75
2023-04-18T20:44:19.252Z,50.85
2023-04-18T20:46:46.529Z,59.03
2023-04-18T20:49:13.853Z,53.97
2023-04-18T20:51:41.466Z,53.63
2023-04-18T20:54:08.883Z,56.17
2023-04-18T20:56:38.999Z,48.53
2023-04-18T20:59:06.167Z,52.92
2023-04-18T21:01:33.798Z,45.50
2023-04-18T21:04:02.293Z,50.42
2023-04-18T21:06:29.773Z,41.15
2023-04-18T21:08:56.872Z,53.55
2023-04-18T21:11:24.140Z,47.22
2023-04-18T21:13:51.583Z,43.38
2023-04-18T21:16:18.683Z,51.65
2023-04-18T21:18:45.914Z,49.58
2023-04-18T21:21:13.219Z,46.90
2023-04-18T21:23:43.924Z,48.67
2023-04-18T21:29:02.071Z,41.40
2023-04-18T21:31:30.924Z,39.78
2023-04-18T21:34:00.249Z,40.20
2023-04-18T21:36:28.711Z,38.72
2023-04-18T21:38:57.611Z,43.35
2023-04-18T21:41:25.500Z,48.17
2023-04-18T21:43:53.212Z,43.17
2023-04-18T21:46:20.531Z,45.42
2023-04-18T21:48:48.184Z,41.42
2023-04-18T21:51:16.880Z,44.08
2023-04-18T21:53:44.418Z,35.10
2023-04-18T21:56:11.683Z,34.80
2023-04-18T21:58:38.704Z,36.42
2023-04-18T22:01:06.140Z,36.00
2023-04-18T22:03:34.311Z,34.55
2023-04-18T22:06:02.148Z,37.05
2023-04-18T22:08:29.711Z,37.45
2023-04-18T22:10:59.095Z,37.78
2023-04-18T22:13:33.339Z,36.53
2023-04-18T22:16:04.925Z,35.10
2023-04-18T22:18:35.246Z,51.08
2023-04-18T22:21:03.670Z,37.38
2023-04-18T22:23:30.945Z,33.13
2023-04-18T22:25:58.129Z,35.28
2023-04-18T22:28:28.083Z,39.67
2023-04-18T22:30:55.263Z,33.17
2023-04-18T22:33:22.409Z,36.30
2023-04-18T22:35:49.440Z,35.88
2023-04-18T22:38:16.531Z,38.88
2023-04-18T22:40:43.558Z,32.30
2023-04-18T22:43:10.535Z,33.60
2023-04-18T22:45:37.526Z,37.42
2023-04-18T22:48:05.009Z,41.70
2023-04-18T22:50:32.165Z,38.78
2023-04-18T22:52:59.145Z,36.47
2023-04-18T22:55:26.202Z,48.08
2023-04-18T22:57:53.083Z,48.45
2023-04-18T23:00:20.211Z,39.33
2023-04-18T23:02:47.442Z,34.90
2023-04-18T23:05:16.238Z,35.10
2023-04-18T23:07:43.211Z,34.13
2023-04-18T23:10:10.835Z,35.17
2023-04-18T23:12:37.814Z,34.92
2023-04-18T23:15:05.289Z,34.88
2023-04-18T23:17:35.074Z,35.10
2023-04-18T23:20:02.220Z,33.28
2023-04-18T23:22:30.775Z,37.17
2023-04-18T23:24:57.878Z,39.92
2023-04-18T23:27:24.976Z,32.08
2023-04-18T23:29:51.962Z,27.83
2023-04-18T23:32:19.041Z,31.65
2023-04-18T23:34:46.496Z,33.85
2023-04-18T23:37:13.511Z,35.72
2023-04-18T23:39:41.008Z,31.35
2023-04-18T23:42:07.964Z,37.17
2023-04-18T23:44:34.900Z,32.33
2023-04-18T23:47:02.085Z,30.90
2023-04-18T23:49:29.156Z,30.77
2023-04-18T23:51:56.150Z,33.60
2023-04-18T23:54:23.429Z,33.95
2023-04-18T23:56:50.456Z,31.48
2023-04-18T23:59:17.461Z,37.55
